sensor_id;sensor_type;location;lat;lon;timestamp;pressure;altitude;pressure_sealevel;temperature;humidity
33280;BME280;20403;43.114;12.434;2022-12-11T00:00:13;97320.03;;;10.71;100.00
33280;BME280;20403;43.114;12.434;2022-12-11T00:02:39;97312.22;;;10.66;100.00
33280;BME280;20403;43.114;12.434;2022-12-11T00:05:05;97317.44;;;10.66;100.00
33280;BME280;20403;43.114;12.434;2022-12-11T00:07:30;97321.59;;;10.67;100.00
33280;BME280;20403;43.114;12.434;2022-12-11T00:09:55;97327.34;;;10.64;100.00
33280;BME280;20403;43.114;12.434;2022-12-11T00:12:20;97325.53;;;10.60;100.00
33280;BME280;20403;43.114;12.434;2022-12-11T00:14:46;97324.28;;;10.47;100.00
33280;BME280;20403;43.114;12.434;2022-12-11T00:17:11;97318.56;;;10.45;100.00
33280;BME280;20403;43.114;12.434;2022-12-11T00:19:37;97314.66;;;10.42;100.00
33280;BME280;20403;43.114;12.434;2022-12-11T00:22:02;97323.22;;;10.48;100.00
33280;BME280;20403;43.114;12.434;2022-12-11T00:24:27;97319.88;;;10.42;100.00
33280;BME280;20403;43.114;12.434;2022-12-11T00:26:53;97323.75;;;10.50;100.00
33280;BME280;20403;43.114;12.434;2022-12-11T00:29:18;97321.94;;;10.40;100.00
33280;BME280;20403;43.114;12.434;2022-12-11T00:31:43;97324.00;;;10.48;100.00
33280;BME280;20403;43.114;12.434;2022-12-11T00:34:09;97327.16;;;10.45;100.00
33280;BME280;20403;43.114;12.434;2022-12-11T00:36:36;97329.00;;;10.40;100.00
33280;BME280;20403;43.114;12.434;2022-12-11T00:39:02;97340.69;;;10.37;100.00
33280;BME280;20403;43.114;12.434;2022-12-11T00:41:27;97332.91;;;10.32;100.00
33280;BME280;20403;43.114;12.434;2022-12-11T00:43:53;97339.41;;;10.29;100.00
33280;BME280;20403;43.114;12.434;2022-12-11T00:46:18;97350.88;;;10.34;100.00
33280;BME280;20403;43.114;12.434;2022-12-11T00:48:44;97362.31;;;10.17;100.00
33280;BME280;20403;43.114;12.434;2022-12-11T00:51:10;97363.91;;;10.08;100.00
33280;BME280;20403;43.114;12.434;2022-12-11T00:53:35;97376.91;;;9.98;100.00
33280;BME280;20403;43.114;12.434;2022-12-11T00:56:07;97387.06;;;10.04;100.00
33280;BME280;20403;43.114;12.434;2022-12-11T00:58:33;97385.50;;;9.98;100.00
33280;BME280;20403;43.114;12.434;2022-12-11T01:01:04;97389.88;;;9.77;100.00
33280;BME280;20403;43.114;12.434;2022-12-11T01:03:29;97394.56;;;9.60;100.00
33280;BME280;20403;43.114;12.434;2022-12-11T01:05:54;97402.91;;;9.67;100.00
33280;BME280;20403;43.114;12.434;2022-12-11T01:08:20;97399.28;;;9.78;100.00
33280;BME280;20403;43.114;12.434;2022-12-11T01:10:45;97407.84;;;9.74;100.00
33280;BME280;20403;43.114;12.434;2022-12-11T01:13:11;97406.53;;;9.66;100.00
33280;BME280;20403;43.114;12.434;2022-12-11T01:15:40;97407.03;;;9.58;100.00
33280;BME280;20403;43.114;12.434;2022-12-11T01:18:06;97403.66;;;9.57;100.00
33280;BME280;20403;43.114;12.434;2022-12-11T01:20:31;97402.59;;;9.48;100.00
33280;BME280;20403;43.114;12.434;2022-12-11T01:22:57;97402.31;;;9.50;100.00
33280;BME280;20403;43.114;12.434;2022-12-11T01:25:23;97402.59;;;9.43;100.00
33280;BME280;20403;43.114;12.434;2022-12-11T01:27:49;97407.78;;;9.43;100.00
33280;BME280;20403;43.114;12.434;2022-12-11T01:30:15;97411.47;;;9.52;100.00
33280;BME280;20403;43.114;12.434;2022-12-11T01:32:41;97405.94;;;9.38;100.00
33280;BME280;20403;43.114;12.434;2022-12-11T01:35:07;97407.75;;;9.33;100.00
33280;BME280;20403;43.114;12.434;2022-12-11T01:37:32;97417.66;;;9.36;100.00
33280;BME280;20403;43.114;12.434;2022-12-11T01:39:58;97427.00;;;9.37;100.00
33280;BME280;20403;43.114;12.434;2022-12-11T01:42:24;97424.16;;;9.38;100.00
33280;BME280;20403;43.114;12.434;2022-12-11T01:47:14;97427.47;;;9.23;100.00
33280;BME280;20403;43.114;12.434;2022-12-11T01:49:41;97424.56;;;9.15;100.00
33280;BME280;20403;43.114;12.434;2022-12-11T01:52:10;97421.47;;;9.13;100.00
33280;BME280;20403;43.114;12.434;2022-12-11T01:54:37;97427.69;;;9.12;100.00
33280;BME280;20403;43.114;12.434;2022-12-11T01:57:03;97435.97;;;9.03;100.00
33280;BME280;20403;43.114;12.434;2022-12-11T01:59:30;97438.72;;;8.87;100.00
33280;BME280;20403;43.114;12.434;2022-12-11T02:01:57;97430.91;;;8.87;100.00
33280;BME280;20403;43.114;12.434;2022-12-11T02:04:23;97430.19;;;8.96;100.00
33280;BME280;20403;43.114;12.434;2022-12-11T02:06:50;97432.22;;;8.89;100.00
33280;BME280;20403;43.114;12.434;2022-12-11T02:09:17;97428.41;;;9.02;100.00
33280;BME280;20403;43.114;12.434;2022-12-11T02:16:54;97426.56;;;8.92;100.00
33280;BME280;20403;43.114;12.434;2022-12-11T02:21:57;97412.94;;;8.75;100.00
33280;BME280;20403;43.114;12.434;2022-12-11T02:26:59;97396.22;;;8.60;100.00
33280;BME280;20403;43.114;12.434;2022-12-11T02:29:34;97399.88;;;8.65;100.00
33280;BME280;20403;43.114;12.434;2022-12-11T02:32:18;97394.69;;;8.65;100.00
33280;BME280;20403;43.114;12.434;2022-12-11T02:34:47;97405.84;;;8.60;100.00
33280;BME280;20403;43.114;12.434;2022-12-11T02:37:15;97393.06;;;8.53;100.00
33280;BME280;20403;43.114;12.434;2022-12-11T02:39:42;97395.16;;;8.56;100.00
33280;BME280;20403;43.114;12.434;2022-12-11T02:42:10;97400.00;;;8.48;100.00
33280;BME280;20403;43.114;12.434;2022-12-11T02:44:36;97391.34;;;8.37;100.00
33280;BME280;20403;43.114;12.434;2022-12-11T02:47:02;97394.97;;;8.36;100.00
33280;BME280;20403;43.114;12.434;2022-12-11T02:49:29;97389.97;;;8.24;100.00
33280;BME280;20403;43.114;12.434;2022-12-11T02:51:55;97395.81;;;8.09;100.00
33280;BME280;20403;43.114;12.434;2022-12-11T02:54:22;97390.38;;;8.11;100.00
33280;BME280;20403;43.114;12.434;2022-12-11T02:56:55;97393.88;;;8.27;100.00
33280;BME280;20403;43.114;12.434;2022-12-11T02:59:24;97390.16;;;8.17;100.00
33280;BME280;20403;43.114;12.434;2022-12-11T03:01:51;97386.22;;;8.10;100.00
33280;BME280;20403;43.114;12.434;2022-12-11T03:04:16;97384.66;;;8.09;100.00
33280;BME280;20403;43.114;12.434;2022-12-11T03:06:43;97394.81;;;8.15;100.00
33280;BME280;20403;43.114;12.434;2022-12-11T03:09:10;97395.47;;;8.00;100.00
33280;BME280;20403;43.114;12.434;2022-12-11T03:11:36;97397.88;;;8.07;100.00
33280;BME280;20403;43.114;12.434;2022-12-11T03:14:01;97402.22;;;8.02;100.00
33280;BME280;20403;43.114;12.434;2022-12-11T03:16:33;97405.94;;;8.11;100.00
33280;BME280;20403;43.114;12.434;2022-12-11T03:21:52;97406.03;;;8.21;100.00
33280;BME280;20403;43.114;12.434;2022-12-11T03:24:19;97407.41;;;8.34;100.00
33280;BME280;20403;43.114;12.434;2022-12-11T03:26:49;97419.28;;;8.25;100.00
33280;BME280;20403;43.114;12.434;2022-12-11T03:29:30;97426.09;;;8.31;100.00
33280;BME280;20403;43.114;12.434;2022-12-11T03:31:57;97432.38;;;8.35;100.00
33280;BME280;20403;43.114;12.434;2022-12-11T03:34:32;97429.53;;;8.36;100.00
33280;BME280;20403;43.114;12.434;2022-12-11T03:36:59;97431.69;;;8.45;100.00
33280;BME280;20403;43.114;12.434;2022-12-11T03:39:29;97439.28;;;8.51;100.00
33280;BME280;20403;43.114;12.434;2022-12-11T03:41:56;97440.88;;;8.57;100.00
33280;BME280;20403;43.114;12.434;2022-12-11T03:44:22;97443.44;;;8.52;100.00
33280;BME280;20403;43.114;12.434;2022-12-11T03:46:48;97436.94;;;8.55;100.00
33280;BME280;20403;43.114;12.434;2022-12-11T03:49:15;97434.81;;;8.47;100.00
33280;BME280;20403;43.114;12.434;2022-12-11T03:51:42;97442.41;;;8.53;100.00
33280;BME280;20403;43.114;12.434;2022-12-11T03:54:09;97442.38;;;8.48;100.00
33280;BME280;20403;43.114;12.434;2022-12-11T03:56:35;97453.25;;;8.45;100.00
33280;BME280;20403;43.114;12.434;2022-12-11T03:59:02;97451.44;;;8.46;100.00
33280;BME280;20403;43.114;12.434;2022-12-11T04:01:28;97452.91;;;8.36;100.00
33280;BME280;20403;43.114;12.434;2022-12-11T04:03:53;97442.75;;;8.35;100.00
33280;BME280;20403;43.114;12.434;2022-12-11T04:06:18;97454.03;;;8.46;100.00
33280;BME280;20403;43.114;12.434;2022-12-11T04:08:43;97448.31;;;8.44;100.00
33280;BME280;20403;43.114;12.434;2022-12-11T04:11:09;97442.59;;;8.41;100.00
33280;BME280;20403;43.114;12.434;2022-12-11T04:13:53;97446.03;;;8.52;100.00
33280;BME280;20403;43.114;12.434;2022-12-11T04:16:37;97443.78;;;8.66;100.00
33280;BME280;20403;43.114;12.434;2022-12-11T04:19:02;97446.69;;;8.70;100.00
33280;BME280;20403;43.114;12.434;2022-12-11T04:21:46;97444.06;;;8.65;100.00
33280;BME280;20403;43.114;12.434;2022-12-11T04:24:30;97442.50;;;8.69;100.00
33280;BME280;20403;43.114;12.434;2022-12-11T04:26:55;97444.09;;;8.75;100.00
33280;BME280;20403;43.114;12.434;2022-12-11T04:29:20;97435.53;;;8.74;100.00
33280;BME280;20403;43.114;12.434;2022-12-11T04:31:46;97441.47;;;8.70;100.00
33280;BME280;20403;43.114;12.434;2022-12-11T04:34:11;97430.50;;;8.57;100.00
33280;BME280;20403;43.114;12.434;2022-12-11T04:36:36;97429.69;;;8.57;100.00
33280;BME280;20403;43.114;12.434;2022-12-11T04:39:02;97431.19;;;8.48;100.00
33280;BME280;20403;43.114;12.434;2022-12-11T04:41:27;97427.28;;;8.45;100.00
33280;BME280;20403;43.114;12.434;2022-12-11T04:43:53;97436.34;;;8.43;100.00
33280;BME280;20403;43.114;12.434;2022-12-11T04:46:20;97433.66;;;8.32;100.00
33280;BME280;20403;43.114;12.434;2022-12-11T04:48:45;97436.69;;;8.24;100.00
33280;BME280;20403;43.114;12.434;2022-12-11T04:51:10;97437.03;;;8.33;100.00
33280;BME280;20403;43.114;12.434;2022-12-11T04:53:36;97438.50;;;8.24;100.00
33280;BME280;20403;43.114;12.434;2022-12-11T04:56:05;97443.75;;;8.29;100.00
33280;BME280;20403;43.114;12.434;2022-12-11T04:58:31;97450.22;;;8.26;100.00
33280;BME280;20403;43.114;12.434;2022-12-11T05:00:57;97444.59;;;8.34;100.00
33280;BME280;20403;43.114;12.434;2022-12-11T05:03:22;97444.75;;;8.23;100.00
33280;BME280;20403;43.114;12.434;2022-12-11T05:05:48;97439.63;;;8.33;100.00
33280;BME280;20403;43.114;12.434;2022-12-11T05:08:15;97440.94;;;8.35;100.00
33280;BME280;20403;43.114;12.434;2022-12-11T05:10:40;97446.88;;;8.31;100.00
33280;BME280;20403;43.114;12.434;2022-12-11T05:13:05;97447.66;;;8.31;100.00
33280;BME280;20403;43.114;12.434;2022-12-11T05:15:31;97452.47;;;8.17;100.00
33280;BME280;20403;43.114;12.434;2022-12-11T05:17:56;97455.75;;;8.08;100.00
33280;BME280;20403;43.114;12.434;2022-12-11T05:20:21;97455.00;;;8.07;100.00
33280;BME280;20403;43.114;12.434;2022-12-11T05:22:46;97450.53;;;8.03;100.00
33280;BME280;20403;43.114;12.434;2022-12-11T05:25:12;97448.72;;;8.03;100.00
33280;BME280;20403;43.114;12.434;2022-12-11T05:27:37;97451.34;;;8.08;100.00
33280;BME280;20403;43.114;12.434;2022-12-11T05:30:02;97447.78;;;7.87;100.00
33280;BME280;20403;43.114;12.434;2022-12-11T05:32:28;97450.41;;;7.92;100.00
33280;BME280;20403;43.114;12.434;2022-12-11T05:34:53;97454.06;;;7.91;100.00
33280;BME280;20403;43.114;12.434;2022-12-11T05:37:18;97452.09;;;7.76;100.00
33280;BME280;20403;43.114;12.434;2022-12-11T05:39:44;97445.50;;;7.69;100.00
33280;BME280;20403;43.114;12.434;2022-12-11T05:42:09;97443.78;;;7.74;100.00
33280;BME280;20403;43.114;12.434;2022-12-11T05:44:34;97436.19;;;7.68;100.00
33280;BME280;20403;43.114;12.434;2022-12-11T05:46:59;97429.00;;;7.53;100.00
33280;BME280;20403;43.114;12.434;2022-12-11T05:49:25;97437.63;;;7.36;100.00
33280;BME280;20403;43.114;12.434;2022-12-11T05:51:50;97434.22;;;7.31;100.00
33280;BME280;20403;43.114;12.434;2022-12-11T05:54:15;97429.44;;;7.23;100.00
33280;BME280;20403;43.114;12.434;2022-12-11T05:56:41;97433.97;;;7.32;100.00
33280;BME280;20403;43.114;12.434;2022-12-11T05:59:06;97434.50;;;7.34;100.00
33280;BME280;20403;43.114;12.434;2022-12-11T06:01:38;97434.16;;;7.26;100.00
33280;BME280;20403;43.114;12.434;2022-12-11T06:04:05;97431.00;;;7.24;100.00
33280;BME280;20403;43.114;12.434;2022-12-11T06:06:31;97437.75;;;7.03;100.00
33280;BME280;20403;43.114;12.434;2022-12-11T06:08:57;97435.00;;;6.92;100.00
33280;BME280;20403;43.114;12.434;2022-12-11T06:11:23;97430.97;;;7.02;100.00
33280;BME280;20403;43.114;12.434;2022-12-11T06:13:49;97434.13;;;7.04;100.00
33280;BME280;20403;43.114;12.434;2022-12-11T06:16:14;97429.72;;;7.04;100.00
33280;BME280;20403;43.114;12.434;2022-12-11T06:18:41;97434.84;;;6.99;100.00
33280;BME280;20403;43.114;12.434;2022-12-11T06:21:25;97431.47;;;6.99;100.00
33280;BME280;20403;43.114;12.434;2022-12-11T06:23:52;97430.22;;;7.01;100.00
33280;BME280;20403;43.114;12.434;2022-12-11T06:26:17;97427.19;;;6.87;100.00
33280;BME280;20403;43.114;12.434;2022-12-11T06:28:43;97423.41;;;6.78;100.00
33280;BME280;20403;43.114;12.434;2022-12-11T06:31:09;97425.53;;;6.81;100.00
33280;BME280;20403;43.114;12.434;2022-12-11T06:33:34;97419.88;;;6.84;100.00
33280;BME280;20403;43.114;12.434;2022-12-11T06:36:00;97424.00;;;7.02;100.00
33280;BME280;20403;43.114;12.434;2022-12-11T06:38:26;97424.91;;;6.91;100.00
33280;BME280;20403;43.114;12.434;2022-12-11T06:40:57;97428.50;;;6.90;100.00
33280;BME280;20403;43.114;12.434;2022-12-11T06:43:23;97430.03;;;7.08;100.00
33280;BME280;20403;43.114;12.434;2022-12-11T06:45:48;97429.38;;;7.18;100.00
33280;BME280;20403;43.114;12.434;2022-12-11T06:48:14;97427.75;;;7.33;100.00
33280;BME280;20403;43.114;12.434;2022-12-11T06:50:39;97424.25;;;7.45;100.00
33280;BME280;20403;43.114;12.434;2022-12-11T06:53:04;97437.09;;;7.34;100.00
33280;BME280;20403;43.114;12.434;2022-12-11T06:55:30;97444.63;;;7.36;100.00
33280;BME280;20403;43.114;12.434;2022-12-11T06:57:55;97446.44;;;7.57;100.00
33280;BME280;20403;43.114;12.434;2022-12-11T07:00:20;97447.56;;;7.67;100.00
33280;BME280;20403;43.114;12.434;2022-12-11T07:02:45;97450.88;;;7.62;100.00
33280;BME280;20403;43.114;12.434;2022-12-11T07:05:11;97454.63;;;7.71;100.00
33280;BME280;20403;43.114;12.434;2022-12-11T07:07:36;97454.75;;;7.82;100.00
33280;BME280;20403;43.114;12.434;2022-12-11T07:10:02;97454.75;;;7.82;100.00
33280;BME280;20403;43.114;12.434;2022-12-11T07:12:27;97459.16;;;7.81;100.00
33280;BME280;20403;43.114;12.434;2022-12-11T07:14:53;97467.75;;;7.87;100.00
33280;BME280;20403;43.114;12.434;2022-12-11T07:17:18;97465.13;;;7.82;100.00
33280;BME280;20403;43.114;12.434;2022-12-11T07:19:43;97470.25;;;7.76;100.00
33280;BME280;20403;43.114;12.434;2022-12-11T07:22:08;97476.28;;;7.60;100.00
33280;BME280;20403;43.114;12.434;2022-12-11T07:24:34;97477.00;;;7.55;100.00
33280;BME280;20403;43.114;12.434;2022-12-11T07:26:59;97467.53;;;7.66;100.00
33280;BME280;20403;43.114;12.434;2022-12-11T07:29:24;97468.63;;;7.70;100.00
33280;BME280;20403;43.114;12.434;2022-12-11T07:31:50;97465.59;;;7.78;100.00
33280;BME280;20403;43.114;12.434;2022-12-11T07:34:15;97457.38;;;7.87;100.00
33280;BME280;20403;43.114;12.434;2022-12-11T07:36:41;97467.25;;;7.90;100.00
33280;BME280;20403;43.114;12.434;2022-12-11T07:39:07;97481.19;;;8.06;100.00
33280;BME280;20403;43.114;12.434;2022-12-11T07:41:34;97483.69;;;7.95;100.00
33280;BME280;20403;43.114;12.434;2022-12-11T07:43:59;97469.28;;;7.83;100.00
33280;BME280;20403;43.114;12.434;2022-12-11T07:46:26;97468.84;;;7.91;100.00
33280;BME280;20403;43.114;12.434;2022-12-11T07:48:51;97466.69;;;8.10;100.00
33280;BME280;20403;43.114;12.434;2022-12-11T07:53:43;97476.25;;;8.04;100.00
33280;BME280;20403;43.114;12.434;2022-12-11T07:56:08;97477.56;;;8.07;100.00
33280;BME280;20403;43.114;12.434;2022-12-11T07:58:34;97476.03;;;8.11;100.00
33280;BME280;20403;43.114;12.434;2022-12-11T08:01:00;97471.50;;;8.23;100.00
33280;BME280;20403;43.114;12.434;2022-12-11T08:03:25;97461.44;;;8.32;100.00
33280;BME280;20403;43.114;12.434;2022-12-11T08:05:51;97474.53;;;8.42;100.00
33280;BME280;20403;43.114;12.434;2022-12-11T08:08:17;97488.69;;;8.61;100.00
33280;BME280;20403;43.114;12.434;2022-12-11T08:10:43;97481.97;;;8.66;100.00
33280;BME280;20403;43.114;12.434;2022-12-11T08:13:08;97492.91;;;8.68;100.00
33280;BME280;20403;43.114;12.434;2022-12-11T08:15:34;97502.81;;;8.71;100.00
33280;BME280;20403;43.114;12.434;2022-12-11T08:17:59;97501.75;;;8.67;100.00
33280;BME280;20403;43.114;12.434;2022-12-11T08:20:24;97505.66;;;8.69;100.00
33280;BME280;20403;43.114;12.434;2022-12-11T08:22:50;97503.38;;;8.78;100.00
33280;BME280;20403;43.114;12.434;2022-12-11T08:25:15;97503.34;;;8.73;100.00
33280;BME280;20403;43.114;12.434;2022-12-11T08:27:40;97511.25;;;8.88;100.00
33280;BME280;20403;43.114;12.434;2022-12-11T08:30:06;97516.72;;;8.92;100.00
33280;BME280;20403;43.114;12.434;2022-12-11T08:32:31;97513.66;;;8.95;100.00
33280;BME280;20403;43.114;12.434;2022-12-11T08:34:57;97512.91;;;8.99;100.00
33280;BME280;20403;43.114;12.434;2022-12-11T08:37:23;97517.59;;;9.02;100.00
33280;BME280;20403;43.114;12.434;2022-12-11T08:39:48;97514.47;;;9.05;100.00
33280;BME280;20403;43.114;12.434;2022-12-11T08:42:14;97517.59;;;9.02;100.00
33280;BME280;20403;43.114;12.434;2022-12-11T08:44:39;97516.31;;;9.10;100.00
33280;BME280;20403;43.114;12.434;2022-12-11T08:47:04;97532.28;;;9.24;100.00
33280;BME280;20403;43.114;12.434;2022-12-11T08:49:29;97521.97;;;9.39;100.00
33280;BME280;20403;43.114;12.434;2022-12-11T08:51:55;97517.81;;;9.43;100.00
33280;BME280;20403;43.114;12.434;2022-12-11T08:54:20;97520.53;;;9.69;100.00
33280;BME280;20403;43.114;12.434;2022-12-11T08:56:45;97510.16;;;9.79;100.00
33280;BME280;20403;43.114;12.434;2022-12-11T08:59:11;97510.44;;;9.88;100.00
33280;BME280;20403;43.114;12.434;2022-12-11T09:01:36;97504.50;;;10.03;100.00
33280;BME280;20403;43.114;12.434;2022-12-11T09:04:01;97506.06;;;9.99;100.00
33280;BME280;20403;43.114;12.434;2022-12-11T09:06:27;97507.91;;;10.03;100.00
33280;BME280;20403;43.114;12.434;2022-12-11T09:08:54;97515.22;;;10.27;100.00
33280;BME280;20403;43.114;12.434;2022-12-11T09:11:23;97500.19;;;10.44;100.00
33280;BME280;20403;43.114;12.434;2022-12-11T09:13:49;97515.47;;;10.25;100.00
33280;BME280;20403;43.114;12.434;2022-12-11T09:16:16;97513.88;;;10.09;100.00
33280;BME280;20403;43.114;12.434;2022-12-11T09:18:41;97527.66;;;9.89;100.00
33280;BME280;20403;43.114;12.434;2022-12-11T09:21:08;97527.34;;;9.80;100.00
33280;BME280;20403;43.114;12.434;2022-12-11T09:23:34;97518.19;;;9.67;100.00
33280;BME280;20403;43.114;12.434;2022-12-11T09:25:59;97517.66;;;9.65;100.00
33280;BME280;20403;43.114;12.434;2022-12-11T09:28:27;97511.50;;;9.92;100.00
33280;BME280;20403;43.114;12.434;2022-12-11T09:30:52;97506.59;;;10.06;100.00
33280;BME280;20403;43.114;12.434;2022-12-11T09:33:17;97520.97;;;10.24;100.00
33280;BME280;20403;43.114;12.434;2022-12-11T09:35:43;97521.50;;;10.26;100.00
33280;BME280;20403;43.114;12.434;2022-12-11T09:38:08;97523.59;;;10.34;100.00
33280;BME280;20403;43.114;12.434;2022-12-11T09:40:38;97516.31;;;10.41;100.00
33280;BME280;20403;43.114;12.434;2022-12-11T09:43:39;97522.84;;;10.49;100.00
33280;BME280;20403;43.114;12.434;2022-12-11T09:45:55;97526.22;;;10.34;100.00
33280;BME280;20403;43.114;12.434;2022-12-11T09:48:21;97521.03;;;10.44;100.00
33280;BME280;20403;43.114;12.434;2022-12-11T09:50:49;97514.19;;;10.28;100.00
33280;BME280;20403;43.114;12.434;2022-12-11T09:55:54;97519.13;;;10.19;100.00
33280;BME280;20403;43.114;12.434;2022-12-11T10:06:18;97507.13;;;10.13;100.00
33280;BME280;20403;43.114;12.434;2022-12-11T10:16:53;97500.84;;;9.94;100.00
33280;BME280;20403;43.114;12.434;2022-12-11T10:19:25;97499.50;;;9.91;100.00
33280;BME280;20403;43.114;12.434;2022-12-11T10:21:51;97507.53;;;9.69;100.00
33280;BME280;20403;43.114;12.434;2022-12-11T10:24:25;97507.00;;;9.72;100.00
33280;BME280;20403;43.114;12.434;2022-12-11T10:26:55;97507.28;;;9.76;100.00
33280;BME280;20403;43.114;12.434;2022-12-11T10:29:22;97493.75;;;9.79;100.00
33280;BME280;20403;43.114;12.434;2022-12-11T10:34:32;97497.44;;;9.93;100.00
33280;BME280;20403;43.114;12.434;2022-12-11T10:36:58;97494.59;;;10.00;100.00
33280;BME280;20403;43.114;12.434;2022-12-11T10:39:23;97491.22;;;10.04;100.00
33280;BME280;20403;43.114;12.434;2022-12-11T10:41:49;97495.69;;;10.19;100.00
33280;BME280;20403;43.114;12.434;2022-12-11T10:46:40;97487.38;;;10.33;100.00
33280;BME280;20403;43.114;12.434;2022-12-11T10:49:17;97472.03;;;10.31;100.00
33280;BME280;20403;43.114;12.434;2022-12-11T10:51:44;97467.81;;;10.25;100.00
33280;BME280;20403;43.114;12.434;2022-12-11T10:56:54;97468.38;;;10.42;100.00
33280;BME280;20403;43.114;12.434;2022-12-11T10:59:31;97468.38;;;10.42;100.00
33280;BME280;20403;43.114;12.434;2022-12-11T11:01:57;97458.72;;;10.48;100.00
33280;BME280;20403;43.114;12.434;2022-12-11T11:04:26;97456.66;;;10.50;100.00
33280;BME280;20403;43.114;12.434;2022-12-11T11:07:07;97459.25;;;10.55;100.00
33280;BME280;20403;43.114;12.434;2022-12-11T11:09:35;97460.31;;;10.49;100.00
33280;BME280;20403;43.114;12.434;2022-12-11T11:12:01;97448.31;;;10.63;100.00
33280;BME280;20403;43.114;12.434;2022-12-11T11:14:26;97443.59;;;10.70;100.00
33280;BME280;20403;43.114;12.434;2022-12-11T11:16:54;97445.66;;;10.89;100.00
33280;BME280;20403;43.114;12.434;2022-12-11T11:21:52;97434.56;;;11.33;100.00
33280;BME280;20403;43.114;12.434;2022-12-11T11:25:19;97426.88;;;11.57;100.00
33280;BME280;20403;43.114;12.434;2022-12-11T11:27:18;97417.13;;;11.73;100.00
33280;BME280;20403;43.114;12.434;2022-12-11T11:29:45;97411.38;;;11.81;100.00
33280;BME280;20403;43.114;12.434;2022-12-11T11:32:19;97422.81;;;11.85;100.00
33280;BME280;20403;43.114;12.434;2022-12-11T11:34:46;97419.41;;;11.95;100.00
33280;BME280;20403;43.114;12.434;2022-12-11T11:37:30;97417.59;;;11.85;100.00
33280;BME280;20403;43.114;12.434;2022-12-11T11:39:57;97418.50;;;11.65;100.00
33280;BME280;20403;43.114;12.434;2022-12-11T11:42:34;97415.09;;;11.70;100.00
33280;BME280;20403;43.114;12.434;2022-12-11T11:45:04;97415.53;;;11.82;100.00
33280;BME280;20403;43.114;12.434;2022-12-11T11:47:34;97411.38;;;11.81;100.00
33280;BME280;20403;43.114;12.434;2022-12-11T11:50:13;97410.28;;;11.92;100.00
33280;BME280;20403;43.114;12.434;2022-12-11T12:00:06;97402.16;;;11.94;100.00
33280;BME280;20403;43.114;12.434;2022-12-11T12:02:39;97400.66;;;11.88;100.00
33280;BME280;20403;43.114;12.434;2022-12-11T12:05:05;97398.97;;;12.02;100.00
33280;BME280;20403;43.114;12.434;2022-12-11T12:36:01;97394.25;;;11.60;100.00
33280;BME280;20403;43.114;12.434;2022-12-11T12:38:36;97395.56;;;11.57;100.00
33280;BME280;20403;43.114;12.434;2022-12-11T12:46:10;97387.13;;;11.70;100.00
33280;BME280;20403;43.114;12.434;2022-12-11T12:48:41;97378.25;;;11.71;100.00
33280;BME280;20403;43.114;12.434;2022-12-11T12:51:08;97378.75;;;11.73;100.00
33280;BME280;20403;43.114;12.434;2022-12-11T12:53:37;97383.16;;;11.83;100.00
33280;BME280;20403;43.114;12.434;2022-12-11T12:56:02;97380.75;;;11.87;100.00
33280;BME280;20403;43.114;12.434;2022-12-11T13:03:35;97383.53;;;12.06;100.00
33280;BME280;20403;43.114;12.434;2022-12-11T13:06:03;97391.81;;;12.18;100.00
33280;BME280;20403;43.114;12.434;2022-12-11T13:08:30;97382.69;;;12.10;100.00
33280;BME280;20403;43.114;12.434;2022-12-11T13:11:05;97393.41;;;12.14;100.00
33280;BME280;20403;43.114;12.434;2022-12-11T13:13:39;97388.94;;;12.14;100.00
33280;BME280;20403;43.114;12.434;2022-12-11T13:16:33;97397.13;;;12.03;100.00
33280;BME280;20403;43.114;12.434;2022-12-11T13:18:51;97401.66;;;12.26;100.00
33280;BME280;20403;43.114;12.434;2022-12-11T13:23:51;97395.28;;;12.37;100.00
33280;BME280;20403;43.114;12.434;2022-12-11T13:26:30;97395.84;;;12.34;100.00
33280;BME280;20403;43.114;12.434;2022-12-11T13:28:55;97397.03;;;12.18;100.00
33280;BME280;20403;43.114;12.434;2022-12-11T13:31:40;97389.56;;;12.01;100.00
33280;BME280;20403;43.114;12.434;2022-12-11T13:36:34;97393.72;;;11.63;100.00
33280;BME280;20403;43.114;12.434;2022-12-11T13:39:07;97389.06;;;11.54;100.00
33280;BME280;20403;43.114;12.434;2022-12-11T13:41:42;97399.31;;;11.41;100.00
33280;BME280;20403;43.114;12.434;2022-12-11T13:44:11;97397.84;;;11.09;100.00
33280;BME280;20403;43.114;12.434;2022-12-11T13:46:40;97395.84;;;10.85;100.00
33280;BME280;20403;43.114;12.434;2022-12-11T13:49:05;97402.41;;;10.62;100.00
33280;BME280;20403;43.114;12.434;2022-12-11T13:51:31;97410.00;;;10.48;100.00
33280;BME280;20403;43.114;12.434;2022-12-11T13:54:03;97405.84;;;10.32;100.00
33280;BME280;20403;43.114;12.434;2022-12-11T13:56:28;97402.44;;;10.37;100.00
33280;BME280;20403;43.114;12.434;2022-12-11T13:58:54;97398.50;;;10.19;100.00
33280;BME280;20403;43.114;12.434;2022-12-11T14:01:20;97404.78;;;10.23;100.00
33280;BME280;20403;43.114;12.434;2022-12-11T14:06:18;97404.25;;;10.10;100.00
33280;BME280;20403;43.114;12.434;2022-12-11T14:08:43;97415.69;;;9.99;100.00
33280;BME280;20403;43.114;12.434;2022-12-11T14:11:14;97412.31;;;9.99;100.00
33280;BME280;20403;43.114;12.434;2022-12-11T14:13:42;97411.53;;;9.98;100.00
33280;BME280;20403;43.114;12.434;2022-12-11T14:16:08;97416.19;;;9.86;100.00
33280;BME280;20403;43.114;12.434;2022-12-11T14:18:34;97428.44;;;9.75;100.00
33280;BME280;20403;43.114;12.434;2022-12-11T14:21:01;97431.53;;;9.72;100.00
33280;BME280;20403;43.114;12.434;2022-12-11T14:23:28;97432.28;;;9.57;100.00
33280;BME280;20403;43.114;12.434;2022-12-11T14:26:12;97445.00;;;9.59;100.00
33280;BME280;20403;43.114;12.434;2022-12-11T14:28:40;97447.41;;;9.71;100.00